Time;durP1;ratioP1;P1;durP2;ratioP2;P2;SDS_P1;SDS_P2;PMS_P1;PMS_P2;Temp;Humidity;BMP_temperature;BMP_pressure;BME280_temperature;BME280_humidity;BME280_pressure;Samples;Min_cycle;Max_cycle;Signal;HPM_P1;HPM_P2
2022/05/18 00:01:39;;;;;;;23.90;22.70;;;18.70;42.40;;;;;;5031141;28;20448;-80
2022/05/18 00:04:05;;;;;;;23.37;22.30;;;18.70;42.40;;;;;;5030565;28;20184;-80
2022/05/18 00:06:31;;;;;;;23.17;22.17;;;18.70;42.00;;;;;;5030153;28;20459;-80
2022/05/18 00:08:56;;;;;;;23.63;22.60;;;18.60;43.20;;;;;;5030995;28;20469;-80
2022/05/18 00:11:22;;;;;;;23.60;22.50;;;18.60;42.90;;;;;;5030963;28;20176;-80
2022/05/18 00:13:51;;;;;;;23.63;22.40;;;18.50;42.90;;;;;;5030961;28;20568;-80
2022/05/18 00:16:20;;;;;;;23.97;22.90;;;18.50;43.20;;;;;;5030444;28;21069;-80
2022/05/18 00:18:46;;;;;;;24.13;23.03;;;18.40;43.10;;;;;;5030447;28;20455;-81
2022/05/18 00:21:12;;;;;;;25.00;23.90;;;18.50;43.30;;;;;;5030779;28;20901;-81
2022/05/18 00:23:38;;;;;;;26.07;24.87;;;18.40;43.30;;;;;;5030790;28;20183;-81
2022/05/18 00:26:04;;;;;;;24.30;23.20;;;18.40;43.50;;;;;;5030362;28;20459;-81
2022/05/18 00:28:30;;;;;;;25.30;23.90;;;18.40;44.00;;;;;;5030861;28;20173;-81
2022/05/18 00:30:57;;;;;;;23.33;22.23;;;18.30;43.90;;;;;;5030763;28;20415;-81
2022/05/18 00:33:23;;;;;;;24.13;23.03;;;18.30;44.40;;;;;;5030658;28;20418;-80
2022/05/18 00:35:49;;;;;;;24.73;23.53;;;18.30;44.70;;;;;;5029852;28;20915;-80
2022/05/18 00:38:15;;;;;;;24.57;23.50;;;18.30;44.20;;;;;;5032103;28;20570;-80
2022/05/18 00:40:44;;;;;;;24.87;23.60;;;18.30;44.20;;;;;;5030805;28;20177;-80
2022/05/18 00:43:18;;;;;;;24.87;23.77;;;18.20;44.50;;;;;;5030645;28;20187;-80
2022/05/18 00:45:44;;;;;;;24.83;23.50;;;18.20;44.40;;;;;;5030221;28;20502;-80
2022/05/18 00:48:10;;;;;;;24.63;23.53;;;18.20;44.50;;;;;;5030644;28;20926;-80
2022/05/18 00:50:37;;;;;;;24.23;23.10;;;18.20;45.40;;;;;;5030781;28;20562;-80
2022/05/18 00:53:10;;;;;;;23.73;22.63;;;18.20;44.70;;;;;;5030481;28;21037;-80
2022/05/18 00:55:40;;;;;;;24.37;23.07;;;18.10;45.00;;;;;;5032792;28;20414;-80
2022/05/18 00:58:14;;;;;;;23.80;22.80;;;18.10;45.50;;;;;;5034384;28;20438;-80
2022/05/18 01:00:42;;;;;;;23.97;22.83;;;18.10;45.60;;;;;;5034584;28;20505;-80
2022/05/18 01:03:17;;;;;;;23.70;22.70;;;18.10;45.70;;;;;;5034308;28;20420;-80
2022/05/18 01:05:45;;;;;;;23.70;22.40;;;18.10;46.10;;;;;;5033892;28;20466;-80
2022/05/18 01:08:18;;;;;;;23.77;22.73;;;18.00;45.70;;;;;;5034279;28;20422;-80
2022/05/18 01:10:44;;;;;;;23.90;22.90;;;17.90;46.60;;;;;;5034432;28;20495;-80
2022/05/18 01:13:12;;;;;;;24.50;23.20;;;17.90;46.50;;;;;;5033182;28;20501;-80
2022/05/18 01:15:38;;;;;;;24.00;22.80;;;17.90;46.50;;;;;;5034023;28;20180;-80
2022/05/18 01:18:04;;;;;;;24.20;23.07;;;17.90;46.70;;;;;;5034707;28;20419;-84
2022/05/18 01:20:48;;;;;;;24.20;22.80;;;17.90;46.80;;;;;;5036512;28;20469;-84
2022/05/18 01:23:42;;;;;;;23.80;22.70;;;17.80;46.70;;;;;;5034474;28;20414;-81
2022/05/18 01:26:19;;;;;;;23.27;22.10;;;17.80;46.90;;;;;;5034977;28;20454;-84
2022/05/18 01:28:57;;;;;;;26.37;25.17;;;17.80;46.90;;;;;;5033944;28;20439;-80
2022/05/18 01:31:50;;;;;;;24.93;23.67;;;17.80;47.60;;;;;;5033714;28;20784;-80
2022/05/18 01:34:19;;;;;;;23.80;22.70;;;17.80;47.50;;;;;;5033373;28;20801;-81
2022/05/18 01:36:45;;;;;;;24.23;23.13;;;17.70;48.00;;;;;;5033645;28;20419;-80
2022/05/18 01:39:18;;;;;;;24.30;22.93;;;17.70;48.40;;;;;;5033524;28;20438;-81
2022/05/18 01:41:58;;;;;;;24.67;23.57;;;17.60;48.30;;;;;;5032512;28;20506;-80
2022/05/18 01:44:25;;;;;;;25.90;24.70;;;17.60;47.90;;;;;;5034215;28;20921;-81
2022/05/18 01:46:52;;;;;;;24.40;23.30;;;17.60;48.30;;;;;;5033418;28;20833;-81
2022/05/18 01:49:18;;;;;;;25.57;24.20;;;17.60;48.30;;;;;;5032200;28;20939;-81
2022/05/18 01:51:47;;;;;;;24.47;23.37;;;17.60;48.30;;;;;;5033290;28;20435;-81
2022/05/18 01:54:13;;;;;;;24.57;23.57;;;17.50;48.20;;;;;;5032867;28;20438;-81
2022/05/18 01:56:40;;;;;;;24.23;23.03;;;17.60;48.60;;;;;;5033230;28;20474;-81
2022/05/18 01:59:05;;;;;;;23.40;22.30;;;17.60;48.30;;;;;;5033173;28;20420;-81
2022/05/18 02:01:31;;;;;;;24.00;22.90;;;17.60;49.00;;;;;;5033282;28;20426;-81
2022/05/18 02:03:57;;;;;;;25.13;23.93;;;17.60;48.30;;;;;;5032369;28;20555;-81
2022/05/18 02:06:23;;;;;;;24.37;23.20;;;17.60;48.30;;;;;;5032274;28;20208;-81
2022/05/18 02:08:48;;;;;;;24.93;23.73;;;17.60;48.50;;;;;;5033075;28;20204;-81
2022/05/18 02:11:17;;;;;;;25.27;23.87;;;17.60;48.50;;;;;;5032907;28;20195;-81
2022/05/18 02:13:43;;;;;;;25.70;24.60;;;17.50;48.70;;;;;;5032789;28;20521;-81
2022/05/18 02:16:09;;;;;;;26.50;25.00;;;17.50;49.10;;;;;;5032435;28;20420;-79
2022/05/18 02:18:35;;;;;;;24.93;23.73;;;17.50;49.10;;;;;;5032880;28;20416;-81
2022/05/18 02:21:05;;;;;;;24.10;22.90;;;17.50;49.50;;;;;;5032286;28;20424;-81
2022/05/18 02:23:32;;;;;;;24.47;23.27;;;17.50;49.80;;;;;;5032637;28;20179;-81
2022/05/18 02:25:58;;;;;;;24.43;23.40;;;17.40;49.80;;;;;;5032300;28;20461;-81
2022/05/18 02:28:25;;;;;;;25.23;24.03;;;17.40;49.90;;;;;;5032662;28;20587;-80
2022/05/18 02:30:50;;;;;;;24.57;23.47;;;17.40;50.20;;;;;;5032669;28;20503;-81
2022/05/18 02:33:16;;;;;;;25.07;23.90;;;17.40;49.60;;;;;;5032276;28;20506;-81
2022/05/18 02:35:42;;;;;;;25.53;24.30;;;17.30;49.70;;;;;;5031384;28;20185;-81
2022/05/18 02:38:09;;;;;;;24.97;23.53;;;17.30;49.80;;;;;;5032513;28;20189;-81
2022/05/18 02:40:35;;;;;;;24.70;23.50;;;17.30;50.30;;;;;;5030688;28;20275;-81
2022/05/18 02:43:00;;;;;;;24.50;23.30;;;17.20;50.60;;;;;;5032337;28;20870;-81
2022/05/18 02:45:26;;;;;;;24.30;23.07;;;17.20;50.80;;;;;;5031781;28;20555;-81
2022/05/18 02:47:51;;;;;;;24.43;23.23;;;17.20;51.10;;;;;;5031791;28;20264;-81
2022/05/18 02:50:17;;;;;;;24.50;23.40;;;17.20;50.70;;;;;;5032146;28;20172;-81
2022/05/18 02:52:43;;;;;;;24.37;23.27;;;17.20;51.30;;;;;;5032056;28;20177;-81
2022/05/18 02:57:53;;;;;;;25.23;24.00;;;17.20;50.80;;;;;;5033717;28;20219;-81
2022/05/18 03:00:19;;;;;;;24.70;23.60;;;17.10;51.10;;;;;;5032079;28;20454;-81
2022/05/18 03:02:45;;;;;;;24.10;23.10;;;17.10;50.70;;;;;;5031416;28;20176;-81
2022/05/18 03:05:11;;;;;;;25.63;23.80;;;17.10;51.20;;;;;;5031623;28;20434;-81
2022/05/18 03:07:37;;;;;;;26.63;25.43;;;17.10;50.60;;;;;;5031780;28;20216;-81
2022/05/18 03:10:04;;;;;;;27.10;25.67;;;17.00;50.90;;;;;;5031945;28;20246;-80
2022/05/18 03:12:29;;;;;;;26.33;25.13;;;17.00;51.70;;;;;;5033062;28;20407;-80
2022/05/18 03:14:55;;;;;;;28.33;27.03;;;17.00;51.80;;;;;;5031493;28;20469;-80
2022/05/18 03:17:21;;;;;;;26.40;25.10;;;17.00;51.30;;;;;;5030438;28;20184;-80
2022/05/18 03:19:49;;;;;;;25.70;24.60;;;16.90;51.40;;;;;;5031694;28;20189;-80
2022/05/18 03:24:59;;;;;;;26.30;25.10;;;16.80;51.40;;;;;;5033091;28;21065;-79
2022/05/18 03:27:25;;;;;;;26.07;24.90;;;16.90;52.10;;;;;;5031757;28;20466;-80
2022/05/18 03:29:52;;;;;;;27.27;25.97;;;16.90;52.20;;;;;;5031891;28;20923;-80
2022/05/18 03:32:17;;;;;;;28.27;26.97;;;16.90;52.00;;;;;;5031769;28;20592;-80
2022/05/18 03:34:43;;;;;;;28.40;26.90;;;16.90;52.50;;;;;;5032594;28;20416;-80
2022/05/18 03:37:09;;;;;;;26.60;25.30;;;16.90;52.50;;;;;;5031696;28;20208;-80
2022/05/18 03:39:34;;;;;;;26.83;25.53;;;16.80;52.30;;;;;;5030772;28;20184;-80
2022/05/18 03:42:00;;;;;;;27.83;26.43;;;16.80;51.90;;;;;;5031404;28;20185;-80
2022/05/18 03:44:26;;;;;;;27.00;25.80;;;16.80;52.50;;;;;;5030358;28;20200;-80
2022/05/18 03:46:51;;;;;;;25.67;24.37;;;16.80;52.60;;;;;;5031215;28;20848;-80
2022/05/18 03:49:17;;;;;;;25.73;24.33;;;16.80;52.20;;;;;;5029996;28;20636;-80
2022/05/18 03:51:43;;;;;;;26.03;24.83;;;16.80;52.50;;;;;;5031269;28;20192;-80
2022/05/18 03:54:08;;;;;;;27.10;25.80;;;16.80;52.80;;;;;;5030799;28;20219;-79
2022/05/18 03:56:34;;;;;;;27.20;25.50;;;16.80;52.50;;;;;;5031409;28;20181;-80
2022/05/18 03:59:00;;;;;;;27.30;26.07;;;16.70;52.50;;;;;;5031460;28;20625;-80
2022/05/18 04:01:26;;;;;;;27.80;26.42;;;16.80;52.70;;;;;;5031710;28;20388;-80
2022/05/18 04:03:52;;;;;;;28.30;26.90;;;16.80;53.30;;;;;;5032229;28;20625;-80
2022/05/18 04:06:18;;;;;;;28.70;27.30;;;16.80;53.10;;;;;;5031103;28;20513;-80
2022/05/18 04:08:44;;;;;;;27.10;25.90;;;16.80;53.40;;;;;;5031344;28;20411;-81
2022/05/18 04:11:11;;;;;;;28.37;26.63;;;16.80;52.90;;;;;;5031093;28;20426;-79
2022/05/18 04:13:37;;;;;;;28.07;26.77;;;16.80;52.80;;;;;;5030902;28;20543;-80
2022/05/18 04:16:04;;;;;;;28.50;27.20;;;16.80;52.50;;;;;;5029371;28;20496;-81
2022/05/18 04:18:30;;;;;;;27.37;26.07;;;16.80;52.50;;;;;;5023841;28;20415;-81
2022/05/18 04:20:58;;;;;;;27.40;25.80;;;16.80;52.50;;;;;;5030595;28;20472;-80
2022/05/18 04:23:24;;;;;;;26.90;25.50;;;16.80;52.50;;;;;;5031113;28;20434;-80
2022/05/18 04:25:51;;;;;;;27.73;26.40;;;16.80;52.50;;;;;;5030517;28;20462;-80
2022/05/18 04:28:17;;;;;;;28.13;26.90;;;16.80;52.50;;;;;;5032300;28;20416;-80
2022/05/18 04:30:45;;;;;;;27.27;25.93;;;16.90;52.60;;;;;;5035240;28;20829;-79
2022/05/18 04:33:16;;;;;;;26.33;25.03;;;16.90;52.80;;;;;;5034307;28;20407;-79
2022/05/18 04:35:41;;;;;;;27.37;25.93;;;16.90;53.50;;;;;;5029091;28;20480;-82
2022/05/18 04:38:08;;;;;;;27.23;25.93;;;16.90;53.20;;;;;;5034319;28;20510;-80
2022/05/18 04:40:34;;;;;;;28.60;27.20;;;16.90;53.20;;;;;;5034907;28;20180;-81
2022/05/18 04:43:00;;;;;;;28.77;27.40;;;16.90;53.90;;;;;;5034901;28;20415;-80
2022/05/18 04:45:26;;;;;;;29.30;27.97;;;17.00;53.80;;;;;;5033300;28;20447;-80
2022/05/18 04:47:52;;;;;;;28.00;26.40;;;17.00;53.40;;;;;;5034963;28;20426;-80
2022/05/18 04:50:19;;;;;;;28.57;26.97;;;17.00;53.30;;;;;;5028377;28;20412;-79
2022/05/18 04:52:45;;;;;;;26.00;24.60;;;17.00;53.70;;;;;;5030969;28;20180;-79
2022/05/18 04:55:14;;;;;;;27.87;26.47;;;17.00;53.00;;;;;;5033892;28;20434;-79
2022/05/18 04:57:40;;;;;;;29.10;27.67;;;17.00;52.10;;;;;;5033778;28;20176;-79
2022/05/18 05:00:09;;;;;;;27.77;26.23;;;17.10;51.50;;;;;;5017978;28;20418;-79
2022/05/18 05:02:35;;;;;;;26.37;24.97;;;17.10;51.80;;;;;;5016246;28;20895;-79
2022/05/18 05:05:04;;;;;;;27.57;26.27;;;17.10;51.80;;;;;;5014486;28;20496;-79
2022/05/18 05:07:30;;;;;;;28.93;26.93;;;17.20;52.00;;;;;;5024293;28;20839;-79
2022/05/18 05:09:55;;;;;;;27.50;26.10;;;17.20;51.70;;;;;;5023544;28;20426;-79
2022/05/18 05:12:21;;;;;;;25.83;24.63;;;17.20;50.80;;;;;;5024570;28;20172;-81
2022/05/18 05:14:47;;;;;;;27.77;26.27;;;17.20;50.90;;;;;;5030196;28;20260;-81
2022/05/18 05:17:12;;;;;;;27.90;26.50;;;17.30;51.60;;;;;;5034625;28;20572;-80
2022/05/18 05:19:38;;;;;;;24.73;23.53;;;17.30;50.50;;;;;;5034527;28;20177;-80
2022/05/18 05:22:04;;;;;;;25.83;24.63;;;17.40;51.10;;;;;;5031880;28;20554;-81
2022/05/18 05:24:31;;;;;;;26.20;24.83;;;17.50;49.50;;;;;;4999540;28;20451;-78
2022/05/18 05:26:57;;;;;;;27.30;25.60;;;17.50;50.30;;;;;;5005978;28;20521;-81
2022/05/18 05:29:26;;;;;;;27.57;26.17;;;17.50;49.30;;;;;;5014427;28;20420;-81
2022/05/18 05:31:51;;;;;;;26.87;25.67;;;17.50;50.20;;;;;;5013841;28;20173;-85
2022/05/18 05:34:26;;;;;;;27.93;26.23;;;17.50;48.80;;;;;;5013584;28;20423;-85
2022/05/18 05:36:52;;;;;;;28.43;26.93;;;17.50;48.80;;;;;;5013798;28;20247;-84
2022/05/18 05:39:20;;;;;;;28.90;27.30;;;17.60;48.60;;;;;;5013128;28;20416;-80
2022/05/18 05:41:45;;;;;;;29.43;27.70;;;17.60;48.30;;;;;;5013308;28;20182;-80
2022/05/18 05:44:11;;;;;;;27.33;25.90;;;17.70;48.40;;;;;;5012782;28;20498;-80
2022/05/18 05:46:37;;;;;;;26.53;24.73;;;17.80;49.20;;;;;;5012963;28;20566;-80
2022/05/18 05:49:03;;;;;;;27.30;25.90;;;17.80;50.10;;;;;;5014000;28;20199;-80
2022/05/18 05:51:28;;;;;;;27.83;26.07;;;17.80;49.70;;;;;;5013868;28;20231;-79
2022/05/18 05:53:54;;;;;;;27.97;26.27;;;17.80;49.70;;;;;;5009113;28;20563;-83
2022/05/18 05:56:21;;;;;;;27.70;26.10;;;17.90;49.60;;;;;;5029584;28;20181;-80
2022/05/18 05:58:48;;;;;;;27.53;26.03;;;17.90;49.90;;;;;;5029578;28;20177;-80
2022/05/18 06:01:14;;;;;;;27.27;25.37;;;18.00;49.90;;;;;;5029206;28;20416;-80
2022/05/18 06:03:40;;;;;;;27.10;25.70;;;18.10;49.20;;;;;;5029788;28;20424;-80
2022/05/18 06:06:08;;;;;;;28.10;26.40;;;18.10;49.70;;;;;;5029334;28;21002;-80
2022/05/18 06:08:34;;;;;;;26.00;24.43;;;18.20;50.60;;;;;;5029278;28;20515;-80
2022/05/18 06:11:01;;;;;;;26.07;24.57;;;18.20;48.20;;;;;;5029709;28;20420;-80
2022/05/18 06:13:28;;;;;;;25.83;24.53;;;18.30;48.70;;;;;;5029727;28;20416;-80
2022/05/18 06:15:54;;;;;;;28.37;26.80;;;18.40;46.80;;;;;;5030031;28;20431;-80
2022/05/18 06:18:20;;;;;;;27.87;26.43;;;18.40;46.10;;;;;;5030228;28;20413;-80
2022/05/18 06:20:47;;;;;;;28.17;26.53;;;18.50;46.90;;;;;;5030129;28;20185;-80
2022/05/18 06:23:14;;;;;;;27.00;25.50;;;18.50;46.30;;;;;;5029542;28;20184;-80
2022/05/18 06:25:39;;;;;;;28.17;26.73;;;18.60;46.60;;;;;;5030676;28;20431;-80
2022/05/18 06:28:06;;;;;;;26.10;24.60;;;18.60;46.40;;;;;;5030636;28;20847;-86
2022/05/18 06:30:32;;;;;;;25.53;24.40;;;18.70;46.80;;;;;;5017273;28;20228;-86
2022/05/18 06:32:58;;;;;;;24.27;23.27;;;18.80;46.90;;;;;;5010905;28;20793;-87
2022/05/18 06:35:24;;;;;;;26.87;25.57;;;18.90;47.10;;;;;;5009014;28;20220;-85
2022/05/18 06:37:50;;;;;;;25.70;24.23;;;18.90;46.30;;;;;;5008558;28;20586;-86
2022/05/18 06:40:17;;;;;;;27.77;26.47;;;19.00;44.50;;;;;;5025281;28;20424;-86
2022/05/18 06:42:44;;;;;;;25.50;24.27;;;19.00;45.60;;;;;;5028872;28;20413;-85
2022/05/18 06:45:12;;;;;;;26.40;24.80;;;19.10;45.60;;;;;;5028426;28;20432;-87
2022/05/18 06:47:37;;;;;;;26.73;25.40;;;19.10;43.80;;;;;;5037618;28;20992;-87
2022/05/18 06:50:08;;;;;;;27.27;26.00;;;19.20;44.70;;;;;;5022494;28;20416;-89
2022/05/18 06:52:34;;;;;;;26.33;25.13;;;19.20;45.00;;;;;;5000896;28;20205;-87
2022/05/18 06:55:02;;;;;;;27.70;26.40;;;19.30;44.60;;;;;;5021155;28;20853;-86
2022/05/18 06:57:28;;;;;;;27.40;26.10;;;19.50;43.00;;;;;;5019796;28;20424;-87
2022/05/18 07:00:05;;;;;;;25.80;24.50;;;19.50;42.80;;;;;;5019983;28;20424;-85
2022/05/18 07:02:32;;;;;;;28.90;27.00;;;19.60;42.70;;;;;;5020229;28;20417;-85
2022/05/18 07:05:00;;;;;;;24.60;23.40;;;19.70;39.70;;;;;;5022855;28;20843;-85
2022/05/18 07:07:26;;;;;;;25.80;24.50;;;19.80;39.20;;;;;;5004312;28;20459;-84
2022/05/18 07:09:52;;;;;;;26.80;25.30;;;19.80;40.20;;;;;;5019457;28;20401;-85
2022/05/18 07:12:17;;;;;;;26.40;24.63;;;19.80;41.00;;;;;;5017398;28;20178;-85
2022/05/18 07:14:43;;;;;;;26.60;25.40;;;19.90;39.50;;;;;;5019917;28;20170;-82
2022/05/18 07:17:10;;;;;;;27.40;26.10;;;20.10;36.60;;;;;;5015997;28;20186;-81
2022/05/18 07:19:36;;;;;;;25.23;24.20;;;20.20;37.40;;;;;;5015574;28;20174;-86
2022/05/18 07:22:03;;;;;;;28.07;26.50;;;20.30;36.80;;;;;;5011765;28;20515;-86
2022/05/18 07:24:29;;;;;;;27.00;25.60;;;20.30;36.90;;;;;;5022547;28;20474;-80
2022/05/18 07:26:54;;;;;;;27.20;25.80;;;20.30;38.50;;;;;;5011324;28;21003;-80
2022/05/18 07:29:20;;;;;;;28.77;27.13;;;20.40;38.90;;;;;;5011558;28;20661;-80
2022/05/18 07:34:30;;;;;;;25.80;24.40;;;20.40;38.90;;;;;;5012725;28;20183;-80
2022/05/18 07:36:56;;;;;;;25.80;24.50;;;20.50;38.50;;;;;;5011203;28;20416;-80
2022/05/18 07:39:22;;;;;;;27.10;25.90;;;20.50;38.50;;;;;;5011412;28;20589;-80
2022/05/18 07:41:48;;;;;;;27.77;26.33;;;20.60;38.80;;;;;;5011372;28;20998;-80
2022/05/18 07:44:14;;;;;;;27.50;25.90;;;20.60;38.60;;;;;;5010728;28;20468;-80
2022/05/18 07:46:40;;;;;;;27.53;26.20;;;20.80;37.20;;;;;;5011223;28;20205;-80
2022/05/18 07:49:06;;;;;;;27.90;26.30;;;20.80;38.00;;;;;;5011032;28;20184;-80
2022/05/18 07:51:32;;;;;;;27.33;25.97;;;20.80;38.10;;;;;;5011286;28;20416;-80
2022/05/18 07:53:58;;;;;;;26.40;25.20;;;20.90;36.70;;;;;;5011298;28;20546;-80
2022/05/18 07:56:24;;;;;;;26.97;25.67;;;20.90;37.00;;;;;;5010893;28;20435;-80
2022/05/18 07:58:50;;;;;;;25.40;24.30;;;21.00;35.60;;;;;;5010777;28;20420;-80
2022/05/18 08:01:16;;;;;;;25.63;24.50;;;21.10;35.20;;;;;;5010363;28;20184;-80
2022/05/18 08:03:42;;;;;;;23.80;22.50;;;21.20;35.00;;;;;;5023784;28;20189;-80
2022/05/18 08:06:09;;;;;;;26.10;24.83;;;21.20;34.30;;;;;;5026922;28;20211;-80
2022/05/18 08:08:34;;;;;;;26.27;24.80;;;21.30;33.10;;;;;;5011032;28;20914;-81
2022/05/18 08:16:30;;;;;;;25.33;24.00;;;21.50;33.00;;;;;;5012294;28;20664;-80
2022/05/18 08:18:56;;;;;;;25.97;24.87;;;21.70;32.80;;;;;;5010725;28;20784;-80
2022/05/18 08:21:22;;;;;;;24.73;23.53;;;21.80;31.70;;;;;;5010316;28;20795;-80
2022/05/18 08:23:48;;;;;;;26.23;25.00;;;21.70;32.60;;;;;;5012183;28;20416;-80
2022/05/18 08:26:13;;;;;;;25.97;24.63;;;21.80;32.40;;;;;;5010008;28;20197;-80
2022/05/18 08:28:40;;;;;;;25.43;24.30;;;21.80;32.70;;;;;;5010804;28;20173;-80
2022/05/18 08:31:06;;;;;;;25.90;24.60;;;22.00;31.60;;;;;;5010570;28;20177;-81
2022/05/18 08:33:32;;;;;;;25.27;24.17;;;22.00;31.70;;;;;;5010854;28;20443;-81
2022/05/18 08:35:59;;;;;;;24.93;23.83;;;22.10;31.30;;;;;;5010798;28;20184;-81
2022/05/18 08:38:25;;;;;;;25.10;23.87;;;22.20;30.60;;;;;;5010970;28;20412;-81
2022/05/18 08:41:22;;;;;;;25.30;23.77;;;22.30;30.90;;;;;;5010821;28;20503;-81
2022/05/18 08:43:55;;;;;;;25.40;24.00;;;22.40;30.00;;;;;;5004298;28;20474;-81
2022/05/18 08:46:29;;;;;;;25.10;23.90;;;22.60;29.60;;;;;;5007787;28;21140;-81
2022/05/18 08:49:12;;;;;;;24.17;23.07;;;22.80;28.60;;;;;;5021819;28;20420;-81
2022/05/18 08:51:48;;;;;;;25.10;23.90;;;22.80;29.40;;;;;;5010751;28;20420;-82
2022/05/18 08:54:24;;;;;;;25.03;23.83;;;22.70;29.90;;;;;;5010188;28;20427;-80
2022/05/18 08:56:53;;;;;;;26.47;25.07;;;22.70;28.10;;;;;;5010811;28;20419;-79
2022/05/18 08:59:29;;;;;;;27.60;25.93;;;22.90;27.80;;;;;;5010423;28;20424;-79
2022/05/18 09:01:58;;;;;;;26.70;25.40;;;22.90;28.10;;;;;;5011699;28;20408;-81
2022/05/18 09:04:43;;;;;;;25.77;24.63;;;23.00;27.80;;;;;;5010126;28;20427;-80
2022/05/18 09:07:13;;;;;;;26.30;24.80;;;23.20;27.90;;;;;;5010548;28;20641;-79
2022/05/18 09:12:29;;;;;;;26.47;24.97;;;23.10;27.50;;;;;;5008641;28;20419;-81
2022/05/18 09:14:55;;;;;;;25.37;24.17;;;23.10;27.10;;;;;;5010169;28;20424;-81
2022/05/18 09:17:51;;;;;;;26.63;25.30;;;23.20;27.50;;;;;;5014028;28;20443;-81
2022/05/18 09:20:22;;;;;;;24.50;23.30;;;23.30;27.20;;;;;;5014185;28;20178;-81
2022/05/18 09:23:23;;;;;;;24.63;23.43;;;23.30;26.90;;;;;;5013955;28;20507;-81
2022/05/18 09:26:08;;;;;;;23.90;22.80;;;23.30;27.20;;;;;;5008732;28;21011;-81
2022/05/18 09:28:34;;;;;;;24.23;23.03;;;23.40;26.90;;;;;;5009430;28;20507;-81
2022/05/18 09:31:11;;;;;;;25.23;24.00;;;23.50;26.80;;;;;;5014899;28;20511;-81
2022/05/18 09:33:51;;;;;;;24.63;23.37;;;23.50;27.00;;;;;;5014726;28;20261;-81
2022/05/18 09:36:29;;;;;;;23.13;22.13;;;23.50;26.00;;;;;;4995192;28;20983;-81
2022/05/18 09:39:24;;;;;;;23.27;22.27;;;23.60;26.30;;;;;;5010119;28;20416;-81
2022/05/18 09:42:11;;;;;;;23.33;22.23;;;23.50;27.00;;;;;;5008889;28;20419;-88
2022/05/18 09:44:42;;;;;;;24.07;22.90;;;23.60;26.40;;;;;;5021542;28;20432;-88
2022/05/18 09:47:12;;;;;;;23.53;22.43;;;23.60;26.10;;;;;;5011093;28;20463;-88
2022/05/18 09:49:43;;;;;;;23.27;22.27;;;23.70;26.50;;;;;;5020668;28;20496;-87
2022/05/18 09:52:10;;;;;;;22.00;21.10;;;23.80;24.80;;;;;;5024156;28;20476;-88
2022/05/18 09:54:38;;;;;;;23.17;22.07;;;24.00;25.30;;;;;;5013603;28;20898;-88
2022/05/18 09:57:10;;;;;;;22.17;21.17;;;24.10;24.50;;;;;;5019641;28;20511;-88
2022/05/18 09:59:40;;;;;;;21.03;19.93;;;24.20;23.90;;;;;;5019974;28;20519;-88
2022/05/18 10:07:50;;;;;;;22.73;21.80;;;24.10;24.50;;;;;;5002678;28;20808;-87
2022/05/18 10:10:29;;;;;;;21.37;20.47;;;24.20;23.90;;;;;;5017915;28;20504;-87
2022/05/18 10:12:55;;;;;;;22.00;20.93;;;24.20;24.00;;;;;;5017619;28;20789;-86
2022/05/18 10:15:23;;;;;;;21.50;20.60;;;24.40;24.10;;;;;;5009251;28;20413;-87
2022/05/18 10:17:54;;;;;;;21.67;20.67;;;24.50;24.70;;;;;;5007751;28;20173;-87
2022/05/18 10:20:28;;;;;;;20.97;20.17;;;24.40;23.70;;;;;;5012380;28;20420;-86
2022/05/18 10:22:55;;;;;;;20.90;19.90;;;24.50;23.00;;;;;;5012705;28;20424;-86
2022/05/18 10:25:41;;;;;;;21.57;20.57;;;24.50;23.10;;;;;;5012670;28;20879;-88
2022/05/18 10:28:23;;;;;;;20.93;20.13;;;24.50;23.80;;;;;;5012088;28;20416;-88
2022/05/18 10:30:56;;;;;;;21.23;20.43;;;24.60;22.70;;;;;;5012788;28;20453;-87
2022/05/18 10:33:44;;;;;;;21.93;20.83;;;24.80;21.90;;;;;;5008798;28;20795;-87
2022/05/18 10:36:24;;;;;;;21.63;20.73;;;24.80;22.00;;;;;;5019459;28;20420;-87
2022/05/18 10:38:53;;;;;;;22.20;21.23;;;24.90;22.10;;;;;;5011661;28;20908;-88
2022/05/18 10:41:24;;;;;;;22.00;21.20;;;25.00;21.40;;;;;;5028692;28;20435;-86
2022/05/18 10:44:13;;;;;;;22.47;21.37;;;25.20;21.30;;;;;;5027798;28;20416;-86
2022/05/18 10:46:42;;;;;;;22.90;21.70;;;25.30;20.80;;;;;;5012550;28;20838;-87
2022/05/18 10:49:25;;;;;;;22.20;21.23;;;25.50;20.90;;;;;;5028268;28;20916;-87
2022/05/18 10:51:51;;;;;;;22.17;21.10;;;25.50;20.70;;;;;;5011246;28;20524;-87
2022/05/18 10:54:21;;;;;;;21.73;20.83;;;25.40;21.50;;;;;;5002478;28;20843;-86
2022/05/18 10:56:47;;;;;;;21.23;20.37;;;25.30;21.60;;;;;;5016819;28;20196;-87
2022/05/18 10:59:50;;;;;;;21.60;20.67;;;25.30;20.40;;;;;;4999113;28;20925;-86
2022/05/18 11:02:45;;;;;;;22.13;21.23;;;25.30;21.50;;;;;;5004656;28;20429;-86
2022/05/18 11:05:37;;;;;;;21.57;20.60;;;25.30;20.60;;;;;;4991623;28;20495;-86
2022/05/18 11:08:07;;;;;;;21.40;20.60;;;25.50;20.50;;;;;;4997727;28;20793;-86
2022/05/18 11:10:59;;;;;;;21.13;20.23;;;25.60;19.40;;;;;;4993683;28;20405;-86
2022/05/18 11:13:46;;;;;;;21.27;20.47;;;25.70;19.10;;;;;;5008234;28;20421;-86
2022/05/18 11:16:25;;;;;;;21.60;20.13;;;25.70;19.50;;;;;;5008565;28;20789;-85
2022/05/18 11:19:12;;;;;;;22.33;21.53;;;25.50;20.20;;;;;;5009133;28;20949;-85
2022/05/18 11:21:52;;;;;;;22.07;21.07;;;25.50;21.10;;;;;;5012528;28;20930;-85
2022/05/18 11:24:39;;;;;;;20.97;20.00;;;25.60;21.50;;;;;;4994506;28;20417;-85
2022/05/18 11:27:16;;;;;;;20.57;19.57;;;25.50;21.80;;;;;;4997540;23;20565;-85
2022/05/18 11:30:05;;;;;;;20.80;20.00;;;25.60;20.80;;;;;;4974486;28;21090;-86
2022/05/18 11:32:47;;;;;;;20.97;20.07;;;25.70;20.90;;;;;;4973222;28;20846;-80
2022/05/18 11:35:34;;;;;;;23.30;21.83;;;25.70;20.20;;;;;;4971632;28;20421;-80
2022/05/18 11:38:21;;;;;;;21.43;20.50;;;26.00;19.50;;;;;;4972366;28;20834;-81
2022/05/18 11:41:14;;;;;;;22.40;21.40;;;25.90;19.10;;;;;;4972906;28;20422;-80
2022/05/18 11:44:02;;;;;;;21.30;20.40;;;25.80;20.20;;;;;;4972555;28;20414;-81
2022/05/18 11:46:46;;;;;;;21.73;20.73;;;25.80;18.90;;;;;;4973288;28;20449;-80
2022/05/18 11:49:30;;;;;;;21.13;20.23;;;25.70;19.30;;;;;;4971740;28;20426;-80
2022/05/18 11:52:04;;;;;;;20.73;19.93;;;25.70;20.10;;;;;;4972265;28;20505;-80
2022/05/18 11:55:07;;;;;;;21.80;20.90;;;25.90;20.70;;;;;;4971763;28;21000;-80
2022/05/18 11:57:58;;;;;;;21.80;20.80;;;26.20;20.70;;;;;;4907350;28;20421;-80
2022/05/18 12:03:24;;;;;;;22.83;21.87;;;26.40;20.70;;;;;;4972964;28;20465;-81
2022/05/18 12:06:17;;;;;;;22.27;21.27;;;26.40;20.10;;;;;;4963171;28;20426;-81
2022/05/18 12:08:52;;;;;;;23.10;22.20;;;26.30;19.20;;;;;;4968075;28;20415;-82
2022/05/18 12:11:30;;;;;;;23.97;22.77;;;26.30;19.80;;;;;;4967695;28;20431;-81
2022/05/18 12:14:53;;;;;;;23.40;22.30;;;26.30;19.70;;;;;;4970688;28;20755;-81
2022/05/18 12:17:43;;;;;;;23.13;22.13;;;26.40;20.00;;;;;;4987093;28;20414;-81
2022/05/18 12:20:21;;;;;;;22.17;21.17;;;26.50;19.10;;;;;;4970197;28;20964;-81
2022/05/18 12:22:54;;;;;;;22.53;21.43;;;26.50;19.80;;;;;;4967765;28;20415;-81
2022/05/18 12:25:22;;;;;;;23.83;22.83;;;26.50;19.70;;;;;;4987091;28;20426;-80
2022/05/18 12:27:51;;;;;;;24.50;23.23;;;26.50;19.60;;;;;;4987168;28;20488;-80
2022/05/18 12:30:21;;;;;;;24.50;23.50;;;26.50;19.30;;;;;;4987629;28;20414;-81
2022/05/18 12:32:49;;;;;;;23.13;21.90;;;26.80;19.10;;;;;;4987339;28;20418;-81
2022/05/18 12:35:25;;;;;;;24.43;23.20;;;26.80;19.20;;;;;;4986448;28;20438;-80
2022/05/18 12:37:56;;;;;;;23.40;22.30;;;26.80;19.60;;;;;;4987145;28;20433;-80
2022/05/18 12:40:33;;;;;;;22.53;21.60;;;26.90;18.70;;;;;;4970331;28;20508;-80
2022/05/18 12:43:24;;;;;;;22.60;21.60;;;27.00;18.80;;;;;;4970769;28;20459;-80
2022/05/18 12:46:02;;;;;;;22.40;21.40;;;27.10;18.60;;;;;;4959668;28;20449;-80
2022/05/18 12:48:33;;;;;;;22.57;21.67;;;27.00;18.90;;;;;;4987779;28;20516;-80
2022/05/18 12:51:30;;;;;;;20.70;19.80;;;27.00;17.90;;;;;;4989414;28;20805;-81
2022/05/18 12:53:59;;;;;;;23.20;22.20;;;26.90;17.90;;;;;;4991606;28;20476;-80
2022/05/18 12:56:37;;;;;;;20.47;19.60;;;26.80;18.40;;;;;;4991842;28;20513;-87
2022/05/18 12:59:12;;;;;;;21.70;20.90;;;27.00;18.70;;;;;;4991513;28;20516;-86
2022/05/18 13:01:43;;;;;;;22.20;21.30;;;26.90;19.00;;;;;;4991677;28;20483;-86
2022/05/18 13:04:09;;;;;;;21.50;20.60;;;27.00;18.10;;;;;;4990334;28;20824;-86
2022/05/18 13:06:55;;;;;;;21.90;21.00;;;27.00;18.30;;;;;;4976953;28;20504;-82
2022/05/18 13:09:29;;;;;;;22.53;21.53;;;27.00;18.30;;;;;;4992013;28;20694;-81
2022/05/18 13:12:04;;;;;;;20.80;19.90;;;27.10;18.30;;;;;;4975662;28;20422;-80